Time;durP1;ratioP1;P1;durP2;ratioP2;P2;SDS_P1;SDS_P2;PMS_P1;PMS_P2;Temp;Humidity;BMP_temperature;BMP_pressure;BME280_temperature;BME280_humidity;BME280_pressure;Samples;Min_cycle;Max_cycle;Signal;HPM_P1;HPM_P2
2023/08/24 00:01:55;;;;;;;;;;;;;;;24.82;65.80;97038.34;621413;227;64901;-62
2023/08/24 00:04:22;;;;;;;;;;;;;;;24.82;65.81;97038.34;620625;228;64863;-62
2023/08/24 00:06:50;;;;;;;;;;;;;;;24.82;65.84;97043.71;622423;227;63088;-62
2023/08/24 00:09:18;;;;;;;;;;;;;;;24.81;65.91;97039.44;620442;228;65037;-58
2023/08/24 00:11:45;;;;;;;;;;;;;;;24.82;65.90;97038.34;620033;229;64913;-62
2023/08/24 00:14:13;;;;;;;;;;;;;;;24.81;65.87;97034.06;620026;229;65607;-62
2023/08/24 00:16:40;;;;;;;;;;;;;;;24.81;65.88;97026.00;620701;228;65035;-62
2023/08/24 00:19:08;;;;;;;;;;;;;;;24.81;65.84;97026.00;620647;228;65069;-62
2023/08/24 00:21:35;;;;;;;;;;;;;;;24.81;65.89;97026.00;620126;228;65269;-62
2023/08/24 00:24:03;;;;;;;;;;;;;;;24.81;65.90;97010.66;620509;228;64965;-62
2023/08/24 00:26:31;;;;;;;;;;;;;;;24.81;65.85;97009.88;620039;229;62642;-62
2023/08/24 00:28:58;;;;;;;;;;;;;;;24.81;65.88;97013.35;620022;229;65536;-62
2023/08/24 00:31:26;;;;;;;;;;;;;;;24.80;65.93;97011.77;619964;229;65689;-62
2023/08/24 00:33:54;;;;;;;;;;;;;;;24.80;65.97;97009.08;620196;228;64987;-62
2023/08/24 00:36:23;;;;;;;;;;;;;;;24.81;65.92;97013.35;620447;228;65591;-62
2023/08/24 00:38:51;;;;;;;;;;;;;;;24.80;65.96;97011.77;620142;228;62840;-62
2023/08/24 00:41:21;;;;;;;;;;;;;;;24.81;65.96;97021.42;620485;228;64895;-61
2023/08/24 00:43:50;;;;;;;;;;;;;;;24.82;65.98;97024.89;620840;228;62995;-62
2023/08/24 00:46:18;;;;;;;;;;;;;;;24.81;65.97;97020.63;620027;229;65142;-62
2023/08/24 00:48:47;;;;;;;;;;;;;;;24.81;65.97;97026.00;620038;229;65056;-62
2023/08/24 00:51:15;;;;;;;;;;;;;;;24.80;65.93;97027.89;619993;229;65614;-62
2023/08/24 00:53:43;;;;;;;;;;;;;;;24.81;65.95;97028.69;619992;229;62868;-62
2023/08/24 00:56:12;;;;;;;;;;;;;;;24.81;65.99;97021.42;620233;228;65724;-62
2023/08/24 00:58:40;;;;;;;;;;;;;;;24.80;66.01;97021.73;620355;228;63623;-62
2023/08/24 01:01:08;;;;;;;;;;;;;;;24.80;66.04;97024.41;620698;228;65307;-62
2023/08/24 01:03:36;;;;;;;;;;;;;;;24.79;66.08;97023.59;619995;229;62736;-62
2023/08/24 01:06:05;;;;;;;;;;;;;;;24.80;66.09;97016.35;612582;230;64993;-62
2023/08/24 01:08:32;;;;;;;;;;;;;;;24.80;66.04;97009.08;619477;229;62818;-62
2023/08/24 01:11:15;;;;;;;;;;;;;;;24.79;66.02;97007.47;615322;229;66327;-62
2023/08/24 01:13:59;;;;;;;;;;;;;;;24.80;66.04;97011.77;611687;228;66438;-62
2023/08/24 01:16:28;;;;;;;;;;;;;;;24.79;66.02;97004.78;620419;227;65340;-61
2023/08/24 01:18:59;;;;;;;;;;;;;;;24.79;66.02;97007.47;620078;229;65078;-61
2023/08/24 01:21:28;;;;;;;;;;;;;;;24.79;66.03;97006.67;620541;228;65619;-61
2023/08/24 01:24:02;;;;;;;;;;;;;;;24.79;66.02;97006.67;620256;228;42061;-61
2023/08/24 01:26:30;;;;;;;;;;;;;;;24.78;66.03;97000.52;622286;227;65190;-61
2023/08/24 01:28:58;;;;;;;;;;;;;;;24.78;66.02;97003.20;622754;227;65475;-61
2023/08/24 01:31:26;;;;;;;;;;;;;;;24.78;66.00;96995.13;620069;229;65004;-61
2023/08/24 01:33:53;;;;;;;;;;;;;;;24.79;66.03;97001.30;620401;228;65760;-61
2023/08/24 01:36:21;;;;;;;;;;;;;;;24.79;66.03;96995.92;620861;228;65568;-61
2023/08/24 01:38:50;;;;;;;;;;;;;;;24.78;66.04;97000.52;620303;228;64935;-61
2023/08/24 01:41:23;;;;;;;;;;;;;;;24.79;66.02;96998.61;620434;228;65119;-61
2023/08/24 01:43:52;;;;;;;;;;;;;;;24.78;66.04;96997.03;620704;228;62966;-61
2023/08/24 01:46:21;;;;;;;;;;;;;;;24.78;66.02;96999.72;620449;228;65652;-62
2023/08/24 01:48:50;;;;;;;;;;;;;;;24.78;66.02;97000.52;620814;228;66135;-62
2023/08/24 01:51:18;;;;;;;;;;;;;;;24.79;66.01;97003.98;620492;228;63021;-59
2023/08/24 01:53:46;;;;;;;;;;;;;;;24.78;66.01;97005.89;614318;229;65273;-59
2023/08/24 01:56:14;;;;;;;;;;;;;;;24.78;66.01;97002.41;620995;228;65030;-59
2023/08/24 01:58:42;;;;;;;;;;;;;;;24.79;66.00;96998.61;621310;227;64227;-59
2023/08/24 02:01:10;;;;;;;;;;;;;;;24.79;66.03;96995.92;620073;229;65109;-59
2023/08/24 02:03:43;;;;;;;;;;;;;;;24.78;66.03;96988.97;620043;229;62514;-59
2023/08/24 02:06:08;;;;;;;;;;;;;;;24.78;66.03;96989.77;620880;228;65327;-59
2023/08/24 02:08:36;;;;;;;;;;;;;;;24.78;66.04;96984.39;621380;227;62964;-59
2023/08/24 02:11:03;;;;;;;;;;;;;;;24.77;66.04;96982.80;621796;228;62735;-62
2023/08/24 02:13:33;;;;;;;;;;;;;;;24.78;66.01;96984.39;622202;227;63108;-62
2023/08/24 02:16:04;;;;;;;;;;;;;;;24.77;66.00;96977.42;620079;229;62868;-62
2023/08/24 02:18:32;;;;;;;;;;;;;;;24.78;66.02;96970.95;620024;229;65267;-61
2023/08/24 02:20:59;;;;;;;;;;;;;;;24.78;66.02;96972.84;620014;229;67010;-61
2023/08/24 02:23:27;;;;;;;;;;;;;;;24.77;66.03;96966.67;620107;228;63022;-61
2023/08/24 02:25:56;;;;;;;;;;;;;;;24.78;66.01;96967.47;620559;228;63713;-61
2023/08/24 02:28:24;;;;;;;;;;;;;;;24.77;66.01;96963.17;620379;228;65543;-61
2023/08/24 02:30:51;;;;;;;;;;;;;;;24.78;66.03;96968.26;620243;228;62886;-61
2023/08/24 02:33:19;;;;;;;;;;;;;;;24.77;66.05;96965.86;619991;229;62497;-60
2023/08/24 02:35:48;;;;;;;;;;;;;;;24.79;66.04;96971.73;620024;229;64783;-61
2023/08/24 02:38:15;;;;;;;;;;;;;;;24.77;66.03;96972.05;620763;228;63197;-61
2023/08/24 02:40:43;;;;;;;;;;;;;;;24.77;66.04;96972.05;620605;228;62766;-61
2023/08/24 02:43:10;;;;;;;;;;;;;;;24.77;66.07;96969.36;621210;228;65618;-61
2023/08/24 02:45:38;;;;;;;;;;;;;;;24.76;66.04;96967.75;622221;227;62903;-61
2023/08/24 02:48:06;;;;;;;;;;;;;;;24.78;66.04;96970.16;621749;227;62516;-61
2023/08/24 02:50:34;;;;;;;;;;;;;;;24.77;66.05;96976.61;620070;229;65617;-61
2023/08/24 02:53:01;;;;;;;;;;;;;;;24.77;66.05;96982.80;620089;229;64754;-62
2023/08/24 02:55:30;;;;;;;;;;;;;;;24.77;66.05;96982.80;620012;229;65365;-61
2023/08/24 02:57:58;;;;;;;;;;;;;;;24.78;66.04;96975.53;620628;228;65671;-61
2023/08/24 03:00:26;;;;;;;;;;;;;;;24.77;66.01;96979.30;620701;228;65541;-61
2023/08/24 03:02:53;;;;;;;;;;;;;;;24.77;66.04;96979.30;622386;227;63546;-61
2023/08/24 03:05:21;;;;;;;;;;;;;;;24.76;66.03;96980.40;620891;228;63115;-61
2023/08/24 03:07:50;;;;;;;;;;;;;;;24.77;66.03;96981.98;620044;229;65165;-61
2023/08/24 03:10:18;;;;;;;;;;;;;;;24.77;66.05;96979.30;620027;229;65049;-61
2023/08/24 03:12:45;;;;;;;;;;;;;;;24.77;66.05;96995.42;621693;227;65552;-61
2023/08/24 03:15:13;;;;;;;;;;;;;;;24.77;66.04;96987.36;620805;227;62819;-61
2023/08/24 03:17:41;;;;;;;;;;;;;;;24.76;66.03;96986.56;620060;229;65127;-61
2023/08/24 03:20:10;;;;;;;;;;;;;;;24.77;66.04;96992.73;620020;229;65115;-61
2023/08/24 03:22:38;;;;;;;;;;;;;;;24.77;66.04;96992.73;620383;228;65345;-61
2023/08/24 03:25:06;;;;;;;;;;;;;;;24.77;66.04;96995.42;620648;228;63849;-61
2023/08/24 03:27:33;;;;;;;;;;;;;;;24.77;66.05;97004.30;620497;228;65913;-61
2023/08/24 03:30:04;;;;;;;;;;;;;;;24.76;66.04;96997.31;620367;228;63038;-61
2023/08/24 03:32:30;;;;;;;;;;;;;;;24.76;66.06;96997.31;620577;228;62633;-61
2023/08/24 03:35:03;;;;;;;;;;;;;;;24.76;66.05;96996.52;620575;228;65965;-61
2023/08/24 03:37:30;;;;;;;;;;;;;;;24.77;66.05;96998.11;620003;229;65144;-61
2023/08/24 03:39:58;;;;;;;;;;;;;;;24.76;66.04;97001.89;620429;228;62620;-61
2023/08/24 03:42:25;;;;;;;;;;;;;;;24.75;66.06;97001.11;620255;228;65250;-58
2023/08/24 03:44:53;;;;;;;;;;;;;;;24.75;66.06;97003.00;620018;229;65200;-58
2023/08/24 03:47:21;;;;;;;;;;;;;;;24.76;66.05;97009.95;620027;229;65718;-58
2023/08/24 03:49:49;;;;;;;;;;;;;;;24.76;66.05;97015.33;620387;228;63809;-58
2023/08/24 03:52:17;;;;;;;;;;;;;;;24.76;66.06;97024.19;620262;228;64941;-58
2023/08/24 03:54:44;;;;;;;;;;;;;;;24.76;66.07;97028.77;620031;229;62731;-59
2023/08/24 03:57:12;;;;;;;;;;;;;;;24.75;66.09;97033.36;620072;229;62993;-59
2023/08/24 03:59:39;;;;;;;;;;;;;;;24.76;66.07;97036.83;620881;228;64985;-59
2023/08/24 04:02:07;;;;;;;;;;;;;;;24.75;66.10;97033.36;620034;229;65935;-59
2023/08/24 04:04:35;;;;;;;;;;;;;;;24.75;66.08;97037.94;620016;229;62542;-59
2023/08/24 04:07:03;;;;;;;;;;;;;;;24.75;66.06;97040.62;620572;228;64924;-59
2023/08/24 04:09:30;;;;;;;;;;;;;;;24.75;66.05;97035.25;620067;228;62925;-59
2023/08/24 04:11:58;;;;;;;;;;;;;;;24.76;66.05;97036.83;620013;229;63049;-58
2023/08/24 04:14:25;;;;;;;;;;;;;;;24.75;66.04;97037.94;621287;228;64233;-59
2023/08/24 04:16:53;;;;;;;;;;;;;;;24.74;66.05;97039.80;621114;227;62663;-58
2023/08/24 04:19:22;;;;;;;;;;;;;;;24.75;66.05;97035.25;620026;229;65256;-58
2023/08/24 04:21:50;;;;;;;;;;;;;;;24.75;66.03;97037.94;620704;228;63972;-59
2023/08/24 04:24:17;;;;;;;;;;;;;;;24.75;66.06;97036.05;622114;227;62731;-59
2023/08/24 04:26:45;;;;;;;;;;;;;;;24.74;66.04;97030.95;620299;227;63016;-60
2023/08/24 04:29:12;;;;;;;;;;;;;;;24.74;66.05;97039.80;620849;228;65024;-60
2023/08/24 04:31:42;;;;;;;;;;;;;;;24.74;66.05;97030.95;620028;228;65295;-60
2023/08/24 04:34:11;;;;;;;;;;;;;;;24.75;66.07;97032.56;620267;228;62728;-60
2023/08/24 04:36:38;;;;;;;;;;;;;;;24.75;66.05;97027.19;620315;228;65137;-60
2023/08/24 04:39:06;;;;;;;;;;;;;;;24.75;66.04;97032.56;619983;229;62640;-60
2023/08/24 04:41:33;;;;;;;;;;;;;;;24.74;66.05;97034.43;620009;229;63318;-59
2023/08/24 04:44:01;;;;;;;;;;;;;;;24.74;66.11;97028.27;620213;228;62911;-60
2023/08/24 04:46:28;;;;;;;;;;;;;;;24.74;66.06;97047.87;622392;227;62843;-60
2023/08/24 04:48:56;;;;;;;;;;;;;;;24.74;66.04;97039.80;620953;227;63184;-60
2023/08/24 04:51:23;;;;;;;;;;;;;;;24.74;66.05;97041.70;621988;227;62901;-60
2023/08/24 04:53:51;;;;;;;;;;;;;;;24.75;66.04;97048.69;620050;229;62753;-60
2023/08/24 04:56:19;;;;;;;;;;;;;;;24.74;66.05;97042.48;619927;229;63051;-59
2023/08/24 04:58:48;;;;;;;;;;;;;;;24.73;66.07;97040.91;620816;228;65058;-60
2023/08/24 05:01:15;;;;;;;;;;;;;;;24.74;66.05;97042.48;619460;228;65042;-60
2023/08/24 05:03:43;;;;;;;;;;;;;;;24.73;66.04;97040.91;620515;228;63064;-60
2023/08/24 05:06:11;;;;;;;;;;;;;;;24.74;66.04;97041.70;620702;228;63205;-60
2023/08/24 05:08:38;;;;;;;;;;;;;;;24.74;66.04;97049.77;620137;228;64720;-60
2023/08/24 05:11:15;;;;;;;;;;;;;;;24.74;66.05;97041.70;620610;228;65397;-59
2023/08/24 05:13:43;;;;;;;;;;;;;;;24.74;66.05;97036.33;620259;228;63247;-59
2023/08/24 05:16:11;;;;;;;;;;;;;;;24.74;66.05;97041.70;620708;228;62714;-60
2023/08/24 05:18:38;;;;;;;;;;;;;;;24.73;66.04;97040.11;619985;229;65448;-59
2023/08/24 05:21:06;;;;;;;;;;;;;;;24.73;66.07;97040.91;620103;228;64811;-60
2023/08/24 05:23:34;;;;;;;;;;;;;;;24.74;66.08;97047.08;620028;229;65105;-60
2023/08/24 05:26:02;;;;;;;;;;;;;;;24.73;66.09;97046.28;620292;228;65621;-60
2023/08/24 05:28:31;;;;;;;;;;;;;;;24.73;66.09;97046.28;620676;228;63235;-60
2023/08/24 05:30:59;;;;;;;;;;;;;;;24.73;66.12;97042.80;620442;228;62723;-60
2023/08/24 05:33:30;;;;;;;;;;;;;;;24.72;66.09;97046.59;620516;228;62984;-60
2023/08/24 05:35:58;;;;;;;;;;;;;;;24.72;66.11;97039.33;620036;229;65406;-59
2023/08/24 05:38:26;;;;;;;;;;;;;;;24.72;66.10;97044.70;621185;228;64931;-59
2023/08/24 05:40:53;;;;;;;;;;;;;;;24.73;66.13;97042.80;621120;227;65500;-60
2023/08/24 05:43:21;;;;;;;;;;;;;;;24.72;66.13;97035.84;620068;229;62935;-59
2023/08/24 05:45:49;;;;;;;;;;;;;;;24.72;66.13;97044.70;620059;229;62912;-60
2023/08/24 05:48:16;;;;;;;;;;;;;;;24.72;66.10;97042.02;620059;229;62808;-60
2023/08/24 05:50:45;;;;;;;;;;;;;;;24.74;66.13;97039.02;620060;229;62968;-60
2023/08/24 05:53:12;;;;;;;;;;;;;;;24.73;66.14;97037.42;620030;229;65089;-59
2023/08/24 05:55:40;;;;;;;;;;;;;;;24.74;66.17;97041.70;620516;228;64163;-60
2023/08/24 05:58:07;;;;;;;;;;;;;;;24.74;66.15;97057.83;620687;228;62932;-60
2023/08/24 06:00:35;;;;;;;;;;;;;;;24.72;66.17;97046.59;620113;228;62728;-59
2023/08/24 06:03:02;;;;;;;;;;;;;;;24.72;66.15;97044.70;621065;228;63061;-60
2023/08/24 06:05:31;;;;;;;;;;;;;;;24.73;66.17;97053.55;621378;228;65865;-60
2023/08/24 06:07:58;;;;;;;;;;;;;;;24.73;66.16;97042.80;619501;226;65117;-63
2023/08/24 06:10:27;;;;;;;;;;;;;;;24.72;66.19;97049.28;619018;229;63297;-63
2023/08/24 06:12:54;;;;;;;;;;;;;;;24.73;66.15;97051.66;621875;227;65085;-67
2023/08/24 06:15:24;;;;;;;;;;;;;;;24.73;66.28;97056.23;615358;228;65050;-62
2023/08/24 06:17:51;;;;;;;;;;;;;;;24.72;66.22;97055.45;620729;228;65382;-63
2023/08/24 06:20:20;;;;;;;;;;;;;;;24.73;66.17;97048.18;619909;229;62933;-63
2023/08/24 06:22:47;;;;;;;;;;;;;;;24.72;66.13;97055.45;619900;229;65051;-64
2023/08/24 06:25:15;;;;;;;;;;;;;;;24.73;66.13;97056.23;620566;228;65421;-64
2023/08/24 06:27:42;;;;;;;;;;;;;;;24.72;66.08;97049.28;621026;228;64986;-63
2023/08/24 06:30:10;;;;;;;;;;;;;;;24.72;66.09;97055.45;621921;228;63634;-62
2023/08/24 06:32:38;;;;;;;;;;;;;;;24.72;66.11;97063.52;620473;228;65661;-66
2023/08/24 06:35:06;;;;;;;;;;;;;;;24.72;66.13;97060.03;620004;229;64848;-63
2023/08/24 06:37:33;;;;;;;;;;;;;;;24.73;66.10;97069.67;621557;227;65073;-64
2023/08/24 06:40:02;;;;;;;;;;;;;;;24.73;66.13;97072.36;620112;228;63002;-61
2023/08/24 06:42:30;;;;;;;;;;;;;;;24.78;66.51;97074.97;620627;228;65498;-66
2023/08/24 06:44:57;;;;;;;;;;;;;;;24.76;66.05;97083.31;619949;229;64855;-63
2023/08/24 06:47:25;;;;;;;;;;;;;;;24.75;66.19;97078.25;619949;229;65716;-63
2023/08/24 06:49:52;;;;;;;;;;;;;;;24.74;66.11;97084.70;620256;228;63799;-63
2023/08/24 06:52:20;;;;;;;;;;;;;;;24.74;66.08;97073.95;620773;227;62760;-63
2023/08/24 06:54:53;;;;;;;;;;;;;;;24.73;66.07;97078.53;620677;228;63020;-63
2023/08/24 06:57:17;;;;;;;;;;;;;;;24.73;66.09;97081.22;619935;228;62916;-64
2023/08/24 06:59:44;;;;;;;;;;;;;;;24.73;66.09;97080.42;621451;228;63691;-65
2023/08/24 07:02:12;;;;;;;;;;;;;;;24.73;66.09;97078.53;620161;228;65226;-65
2023/08/24 07:04:40;;;;;;;;;;;;;;;24.73;66.13;97070.47;619937;229;64949;-65
2023/08/24 07:07:07;;;;;;;;;;;;;;;24.73;66.17;97075.05;621418;228;62767;-65
2023/08/24 07:09:35;;;;;;;;;;;;;;;24.73;66.16;97072.36;620320;228;63665;-65
2023/08/24 07:12:06;;;;;;;;;;;;;;;24.73;66.16;97064.30;621163;228;66063;-65
2023/08/24 07:14:32;;;;;;;;;;;;;;;24.73;66.21;97066.98;621519;228;65028;-66
2023/08/24 07:17:00;;;;;;;;;;;;;;;24.72;66.17;97060.82;613115;228;67794;-66
2023/08/24 07:19:28;;;;;;;;;;;;;;;24.73;66.18;97072.36;621358;228;62947;-67
2023/08/24 07:21:55;;;;;;;;;;;;;;;24.73;66.17;97067.78;620662;228;62968;-69
2023/08/24 07:24:26;;;;;;;;;;;;;;;24.73;66.17;97061.62;620652;228;64087;-68
2023/08/24 07:26:54;;;;;;;;;;;;;;;24.73;66.16;97066.98;620077;228;65360;-68
2023/08/24 07:29:22;;;;;;;;;;;;;;;24.73;66.16;97054.34;614230;229;64646;-65
2023/08/24 07:31:49;;;;;;;;;;;;;;;24.73;66.45;97056.23;614350;228;68697;-67
2023/08/24 07:34:17;;;;;;;;;;;;;;;24.72;66.29;97055.45;621190;228;65193;-68
2023/08/24 07:36:46;;;;;;;;;;;;;;;24.74;66.12;97049.77;622299;227;62733;-68
2023/08/24 07:39:15;;;;;;;;;;;;;;;24.74;66.00;97057.83;619937;229;62553;-67
2023/08/24 07:41:42;;;;;;;;;;;;;;;24.76;65.94;97050.27;619833;229;65178;-68
2023/08/24 07:44:10;;;;;;;;;;;;;;;24.77;65.94;97059.92;612669;229;62754;-68
2023/08/24 07:46:40;;;;;;;;;;;;;;;24.77;65.93;97057.23;618130;229;63156;-66
2023/08/24 07:49:07;;;;;;;;;;;;;;;24.77;65.87;97046.48;621070;228;62580;-67
2023/08/24 07:51:35;;;;;;;;;;;;;;;24.78;65.85;97048.09;621795;227;63610;-65
2023/08/24 07:54:04;;;;;;;;;;;;;;;24.80;65.97;97052.09;619898;229;62634;-68
2023/08/24 07:56:31;;;;;;;;;;;;;;;24.80;66.30;97052.09;621157;228;65178;-68
2023/08/24 07:58:59;;;;;;;;;;;;;;;24.82;67.35;97049.09;621046;227;65034;-68
2023/08/24 08:01:26;;;;;;;;;;;;;;;24.84;67.92;97054.97;619988;228;65037;-68
2023/08/24 08:03:54;;;;;;;;;;;;;;;24.86;67.89;97050.11;621523;227;62609;-67
2023/08/24 08:06:24;;;;;;;;;;;;;;;24.89;67.71;97060.27;620478;228;64821;-65
2023/08/24 08:08:51;;;;;;;;;;;;;;;24.91;67.79;97051.89;622270;227;62741;-68
2023/08/24 08:11:19;;;;;;;;;;;;;;;24.92;67.79;97053.50;620647;228;65328;-66
2023/08/24 08:13:46;;;;;;;;;;;;;;;24.95;67.80;97047.53;620676;228;64866;-68
2023/08/24 08:16:14;;;;;;;;;;;;;;;24.95;67.86;97048.33;620115;228;62625;-67
2023/08/24 08:18:41;;;;;;;;;;;;;;;24.97;67.90;97039.98;620033;228;65113;-64
2023/08/24 08:21:11;;;;;;;;;;;;;;;24.98;67.88;97042.35;621910;228;65224;-64
2023/08/24 08:23:39;;;;;;;;;;;;;;;24.99;67.86;97038.59;621386;228;63154;-66
2023/08/24 08:26:08;;;;;;;;;;;;;;;25.01;68.07;97040.97;620268;228;63049;-64
2023/08/24 08:28:35;;;;;;;;;;;;;;;25.02;67.92;97042.58;621292;228;64989;-65
2023/08/24 08:31:03;;;;;;;;;;;;;;;25.03;67.73;97039.58;621140;228;65604;-66
2023/08/24 08:33:31;;;;;;;;;;;;;;;25.05;67.47;97031.23;620054;228;65288;-65
2023/08/24 08:35:58;;;;;;;;;;;;;;;25.06;67.31;97040.88;621646;227;65024;-66
2023/08/24 08:38:26;;;;;;;;;;;;;;;25.08;67.24;97032.53;621320;227;65369;-65
2023/08/24 08:40:57;;;;;;;;;;;;;;;25.09;67.24;97031.42;620232;228;65281;-66
2023/08/24 08:43:30;;;;;;;;;;;;;;;25.10;67.26;97028.45;620489;228;62806;-65
2023/08/24 08:45:56;;;;;;;;;;;;;;;25.10;67.29;97023.07;619836;229;65522;-65
2023/08/24 08:48:25;;;;;;;;;;;;;;;25.10;67.24;97015.00;620628;228;62322;-65
2023/08/24 08:50:56;;;;;;;;;;;;;;;25.12;67.24;97020.06;619973;228;65077;-65
2023/08/24 08:53:23;;;;;;;;;;;;;;;25.11;67.29;97013.90;620986;228;65542;-65
2023/08/24 08:55:53;;;;;;;;;;;;;;;25.12;67.27;97020.06;621642;227;62829;-64
2023/08/24 08:58:21;;;;;;;;;;;;;;;25.12;67.27;97012.80;619875;229;62674;-67
2023/08/24 09:00:52;;;;;;;;;;;;;;;25.13;66.44;97010.92;621294;227;65324;-59
2023/08/24 09:03:20;;;;;;;;;;;;;;;25.14;65.62;97013.30;621543;227;63544;-60
2023/08/24 09:05:48;;;;;;;;;;;;;;;25.18;66.89;97002.77;622181;227;65116;-60
2023/08/24 09:08:17;;;;;;;;;;;;;;;25.20;67.47;97000.58;621611;226;62957;-67
2023/08/24 09:10:45;;;;;;;;;;;;;;;25.23;65.24;96997.29;619802;228;63437;-67
2023/08/24 09:13:12;;;;;;;;;;;;;;;25.20;67.37;96990.61;620558;228;63013;-67
2023/08/24 09:15:40;;;;;;;;;;;;;;;25.20;67.05;96989.83;620044;228;66489;-67
2023/08/24 09:18:08;;;;;;;;;;;;;;;25.20;67.27;96990.61;621888;226;64956;-68
2023/08/24 09:20:38;;;;;;;;;;;;;;;25.21;67.45;96976.09;620492;227;64865;-66
2023/08/24 09:23:07;;;;;;;;;;;;;;;25.21;67.39;96975.30;619941;229;65443;-66
2023/08/24 09:25:36;;;;;;;;;;;;;;;25.22;67.58;96976.88;619548;227;63921;-68
2023/08/24 09:28:04;;;;;;;;;;;;;;;25.21;67.59;96969.92;620330;228;65043;-68
2023/08/24 09:30:32;;;;;;;;;;;;;;;25.23;68.13;96975.77;619941;229;62907;-69
2023/08/24 09:33:03;;;;;;;;;;;;;;;25.22;68.49;96972.30;620609;228;65015;-69
2023/08/24 09:35:32;;;;;;;;;;;;;;;25.22;68.41;96979.57;620300;228;65147;-67
2023/08/24 09:38:00;;;;;;;;;;;;;;;25.20;68.39;96965.62;620134;228;65922;-69
2023/08/24 09:40:27;;;;;;;;;;;;;;;25.21;68.44;96969.92;620424;228;65002;-65
2023/08/24 09:42:55;;;;;;;;;;;;;;;25.20;68.39;96968.31;621062;228;65005;-65
2023/08/24 09:45:23;;;;;;;;;;;;;;;25.19;68.32;96961.34;620545;228;65438;-68
2023/08/24 09:47:57;;;;;;;;;;;;;;;25.20;68.18;96960.23;620625;228;65219;-65
2023/08/24 09:50:21;;;;;;;;;;;;;;;25.20;68.16;96960.23;621894;227;64851;-67
2023/08/24 09:52:50;;;;;;;;;;;;;;;25.21;68.37;96964.55;620335;227;65377;-68
2023/08/24 09:55:19;;;;;;;;;;;;;;;25.19;68.38;96956.77;620498;228;65390;-65
2023/08/24 09:57:48;;;;;;;;;;;;;;;25.21;68.44;96954.58;620809;228;65086;-67
2023/08/24 10:00:16;;;;;;;;;;;;;;;25.21;68.37;96953.78;620009;229;65509;-64
2023/08/24 10:02:46;;;;;;;;;;;;;;;25.22;68.70;96947.30;620936;228;65191;-66
2023/08/24 10:05:20;;;;;;;;;;;;;;;25.21;68.93;96943.81;620334;228;65091;-67
2023/08/24 10:07:43;;;;;;;;;;;;;;;25.22;69.01;96944.61;619745;228;65443;-66
2023/08/24 10:10:13;;;;;;;;;;;;;;;25.22;69.20;96937.33;620514;228;65138;-66
2023/08/24 10:12:42;;;;;;;;;;;;;;;25.23;69.29;96940.81;621733;228;67092;-66
2023/08/24 10:15:13;;;;;;;;;;;;;;;25.23;69.16;96930.84;620407;228;65499;-67
2023/08/24 10:17:41;;;;;;;;;;;;;;;25.22;68.84;96926.57;620379;228;65002;-65
2023/08/24 10:20:10;;;;;;;;;;;;;;;25.23;68.97;96921.98;621735;227;62794;-67
2023/08/24 10:22:41;;;;;;;;;;;;;;;25.23;68.62;96917.39;621102;227;65703;-66
2023/08/24 10:25:09;;;;;;;;;;;;;;;25.22;68.51;96905.06;621763;227;65506;-62
2023/08/24 10:27:37;;;;;;;;;;;;;;;25.23;68.49;96903.95;620362;227;64816;-64
2023/08/24 10:30:05;;;;;;;;;;;;;;;25.23;68.83;96911.23;619986;229;65420;-64
2023/08/24 10:32:33;;;;;;;;;;;;;;;25.24;68.98;96912.84;620224;228;65206;-65
2023/08/24 10:35:01;;;;;;;;;;;;;;;25.23;68.70;96903.95;620200;228;63039;-64
2023/08/24 10:37:28;;;;;;;;;;;;;;;25.23;68.54;96903.95;621383;228;62921;-64
2023/08/24 10:39:56;;;;;;;;;;;;;;;25.23;68.43;96898.57;620273;228;65102;-64
2023/08/24 10:42:25;;;;;;;;;;;;;;;25.24;68.45;96899.39;620236;228;65003;-64
2023/08/24 10:44:53;;;;;;;;;;;;;;;25.24;68.39;96905.56;619973;228;65048;-63
2023/08/24 10:47:24;;;;;;;;;;;;;;;25.24;68.49;96896.70;621363;228;62849;-64
2023/08/24 10:50:00;;;;;;;;;;;;;;;25.25;68.70;96900.97;620152;228;63081;-65
2023/08/24 10:52:33;;;;;;;;;;;;;;;25.25;68.83;96898.28;619962;229;65450;-68
2023/08/24 10:55:04;;;;;;;;;;;;;;;25.24;65.81;96900.18;619989;229;65029;-65
2023/08/24 10:57:34;;;;;;;;;;;;;;;25.27;68.06;96898.78;619916;229;62959;-68
2023/08/24 11:00:09;;;;;;;;;;;;;;;25.28;68.32;96897.67;619863;229;63076;-65
2023/08/24 11:02:42;;;;;;;;;;;;;;;25.29;67.12;96903.84;619994;229;65216;-65
2023/08/24 11:05:27;;;;;;;;;;;;;;;25.30;67.98;96903.56;620401;228;62736;-65
2023/08/24 11:07:56;;;;;;;;;;;;;;;25.29;68.42;96896.59;620328;228;65415;-65
2023/08/24 11:10:29;;;;;;;;;;;;;;;25.28;67.87;96889.61;619978;229;65351;-65
2023/08/24 11:13:05;;;;;;;;;;;;;;;25.28;68.29;96894.98;620813;228;62818;-64
2023/08/24 11:15:33;;;;;;;;;;;;;;;25.28;68.59;96900.37;620290;228;65291;-64
2023/08/24 11:18:15;;;;;;;;;;;;;;;25.27;66.21;96885.34;620493;228;65269;-64
2023/08/24 11:20:46;;;;;;;;;;;;;;;25.30;67.51;96895.48;619882;228;65293;-61
2023/08/24 11:23:15;;;;;;;;;;;;;;;25.30;67.54;96886.63;619858;229;65389;-70
2023/08/24 11:25:43;;;;;;;;;;;;;;;25.32;67.51;96897.86;619928;229;62992;-69
2023/08/24 11:28:10;;;;;;;;;;;;;;;25.30;67.60;96898.17;619834;229;62773;-65
2023/08/24 11:30:38;;;;;;;;;;;;;;;25.32;67.85;96889.79;619973;229;65514;-60
2023/08/24 11:33:05;;;;;;;;;;;;;;;25.32;67.84;96887.10;614478;228;64744;-61
2023/08/24 11:35:35;;;;;;;;;;;;;;;25.31;67.86;96883.62;620422;228;62643;-60
2023/08/24 11:38:02;;;;;;;;;;;;;;;25.32;67.89;96871.78;620406;228;63190;-65
2023/08/24 11:40:29;;;;;;;;;;;;;;;25.32;67.92;96874.47;620107;228;63293;-64
2023/08/24 11:42:57;;;;;;;;;;;;;;;25.33;67.97;96875.27;620513;228;64899;-64
2023/08/24 11:45:25;;;;;;;;;;;;;;;25.34;68.04;96879.53;620387;228;65219;-60
2023/08/24 11:47:53;;;;;;;;;;;;;;;25.34;68.13;96868.77;619991;229;65218;-60
2023/08/24 11:50:21;;;;;;;;;;;;;;;25.34;68.15;96864.19;619964;229;62729;-60
2023/08/24 11:52:49;;;;;;;;;;;;;;;25.34;68.24;96860.70;619976;229;66126;-60
2023/08/24 11:55:16;;;;;;;;;;;;;;;25.33;68.38;96857.22;619989;229;64818;-59
2023/08/24 11:57:44;;;;;;;;;;;;;;;25.34;68.29;96855.33;620001;228;64898;-60
2023/08/24 12:00:13;;;;;;;;;;;;;;;25.33;68.32;96851.84;620394;228;64760;-61
2023/08/24 12:02:41;;;;;;;;;;;;;;;25.34;68.31;96853.42;619951;228;62938;-62
2023/08/24 12:05:10;;;;;;;;;;;;;;;25.34;68.46;96874.16;620695;228;65103;-62
2023/08/24 12:07:38;;;;;;;;;;;;;;;25.34;68.47;96871.47;620108;228;63920;-62
2023/08/24 12:10:06;;;;;;;;;;;;;;;25.35;68.41;96883.83;619973;229;62577;-62
2023/08/24 12:12:33;;;;;;;;;;;;;;;25.34;68.51;96909.12;619947;229;65033;-69
2023/08/24 12:15:01;;;;;;;;;;;;;;;25.35;68.58;96927.66;621614;227;62555;-66
2023/08/24 12:17:29;;;;;;;;;;;;;;;25.35;68.55;96937.63;620515;227;62676;-60
2023/08/24 12:20:01;;;;;;;;;;;;;;;25.36;68.72;96953.45;620455;228;63027;-63
2023/08/24 12:22:30;;;;;;;;;;;;;;;25.35;68.60;96959.94;619958;229;65673;-63
2023/08/24 12:24:57;;;;;;;;;;;;;;;25.36;69.11;96966.91;619851;229;65158;-64
2023/08/24 12:27:26;;;;;;;;;;;;;;;25.37;69.24;96984.66;621398;228;65242;-65
2023/08/24 12:29:53;;;;;;;;;;;;;;;25.36;68.95;97003.77;612674;229;63328;-64
2023/08/24 12:32:30;;;;;;;;;;;;;;;25.36;69.24;97014.53;620358;228;62977;-64
2023/08/24 12:34:54;;;;;;;;;;;;;;;25.36;69.05;97009.95;622060;227;63002;-65
2023/08/24 12:37:22;;;;;;;;;;;;;;;25.37;69.41;96998.11;619958;229;65563;-65
2023/08/24 12:39:49;;;;;;;;;;;;;;;25.37;69.21;96995.42;619720;227;63788;-66
2023/08/24 12:42:17;;;;;;;;;;;;;;;25.37;69.17;96995.42;619896;229;62672;-66
2023/08/24 12:44:50;;;;;;;;;;;;;;;25.38;69.15;97002.38;619948;228;63123;-65
2023/08/24 12:47:17;;;;;;;;;;;;;;;25.37;69.35;96987.34;620532;228;65980;-65
2023/08/24 12:49:46;;;;;;;;;;;;;;;25.38;69.19;96990.83;619929;229;65138;-66
2023/08/24 12:52:14;;;;;;;;;;;;;;;25.38;69.46;96998.90;619907;229;66365;-65
2023/08/24 12:54:41;;;;;;;;;;;;;;;25.38;69.32;97001.59;619904;229;65509;-65